createdAt,value
2019-03-09T00:03:18.400Z,56.7
2019-03-09T00:18:31.232Z,57.2
2019-03-09T00:33:38.689Z,55.9
2019-03-09T00:48:57.804Z,54.2
2019-03-09T01:04:11.160Z,52.4
2019-03-09T01:19:24.756Z,51.2
2019-03-09T01:34:38.154Z,51.1
2019-03-09T01:49:52.159Z,50.3
2019-03-09T02:05:05.034Z,49.2
2019-03-09T02:20:18.457Z,49.9
2019-03-09T02:35:32.138Z,49
2019-03-09T02:50:39.913Z,48.5
2019-03-09T03:05:58.626Z,48
2019-03-09T03:21:12.002Z,48.1
2019-03-09T03:36:25.303Z,47.5
2019-03-09T03:51:38.594Z,47.9
2019-03-09T04:06:51.875Z,47
2019-03-09T04:22:05.794Z,45.1
2019-03-09T04:37:18.839Z,44
2019-03-09T04:52:31.882Z,43.7
2019-03-09T05:07:40.145Z,43
2019-03-09T05:22:58.717Z,42.3
2019-03-09T05:38:12.283Z,42.5
2019-03-09T05:53:25.731Z,42.5
2019-03-09T06:08:39.383Z,45.7
2019-03-09T06:23:52.875Z,50.8
2019-03-09T06:39:06.292Z,54.1
2019-03-09T06:54:20.103Z,56.2
2019-03-09T07:09:33.013Z,59
2019-03-09T07:24:41.043Z,63.9
2019-03-09T07:39:59.446Z,68.8
2019-03-09T07:55:12.545Z,71.5
2019-03-09T08:10:25.772Z,67.3
2019-03-09T08:25:27.725Z,60.2
2019-03-09T08:40:53.943Z,55.1
2019-03-09T08:56:07.156Z,50.5
2019-03-09T09:11:21.067Z,48.8
2019-03-09T09:26:35.431Z,46.5
2019-03-09T09:41:46.128Z,46.2
2019-03-09T09:57:04.583Z,43.9
2019-03-09T10:12:19.603Z,43.2
2019-03-09T10:27:34.210Z,42.8
2019-03-09T10:42:38.335Z,41.4
2019-03-09T10:58:04.252Z,39.2
2019-03-09T11:13:19.344Z,39.7
2019-03-09T11:28:34.383Z,40.4
2019-03-09T11:43:49.527Z,38.9
2019-03-09T11:58:59.828Z,38.1
2019-03-09T12:14:20.010Z,36.9
2019-03-09T12:29:35.536Z,37.4
2019-03-09T12:44:50.578Z,45.9
2019-03-09T12:59:52.902Z,52.5
2019-03-09T13:15:19.303Z,54.4
2019-03-09T13:30:33.756Z,52
2019-03-09T13:45:48.150Z,54.5
2019-03-09T14:01:02.618Z,51.5
2019-03-09T14:16:12.183Z,49.5
2019-03-09T14:31:32.739Z,52
2019-03-09T14:46:46.230Z,52.7
2019-03-09T15:02:00.642Z,55
2019-03-09T15:17:03.382Z,50.4
2019-03-09T15:32:29.795Z,45.9
2019-03-09T15:47:44.852Z,42.9
2019-03-09T16:02:59.926Z,39
2019-03-09T16:18:16.756Z,34.4
2019-03-09T16:33:23.679Z,36.4
2019-03-09T16:48:47.028Z,39.7
2019-03-09T17:04:01.420Z,41
2019-03-09T17:19:15.990Z,40.4
2019-03-09T17:34:30.534Z,40.4
2019-03-09T17:49:42.375Z,40
2019-03-09T18:04:59.765Z,42.6
2019-03-09T18:20:14.376Z,45.9
2019-03-09T18:35:28.722Z,50.9
2019-03-09T18:50:32.567Z,56.4
2019-03-09T19:05:56.988Z,67
2019-03-09T19:21:10.500Z,77.3
2019-03-09T19:36:23.869Z,80.5
2019-03-09T19:51:37.216Z,69.7
2019-03-09T20:06:47.805Z,63.4
2019-03-09T20:22:04.373Z,57.8
2019-03-09T20:37:17.976Z,47.2
2019-03-09T20:52:31.523Z,49.2
2019-03-09T21:07:34.817Z,47.5
2019-03-09T21:22:58.483Z,45.5
2019-03-09T21:38:11.889Z,45.7
2019-03-09T21:53:26.336Z,47.8
2019-03-09T22:08:38.887Z,48.1
2019-03-09T22:23:47.731Z,46.8
2019-03-09T22:39:04.570Z,48.4
2019-03-09T22:54:18.250Z,50.7
2019-03-09T23:09:30.605Z,50.2
2019-03-09T23:24:32.544Z,49.3
2019-03-09T23:39:56.424Z,48
2019-03-09T23:55:09.274Z,47.2
